Santiago, Minnesota
Current Conditions -  °F | °C
As of 4:14 AM on Saturday 22 Nov 2014 (Local Time) from KPNM Reporting Station
Clear Clear  
Wind Chill: 28°   Ceiling: Unl
Heat Index: 34°   Visibility: 7mi
Dew Point: 28°   Wind: 7mph
Humidity: 81%   Direction: 180°S
Pressure: 29.76"   Gusts: NA
Location:  45.54°N, 93.82°W
Report Text: KPNM 221014Z AUTO 18006KT 7SM CLR 01/M02 A2976 RMK AO2
Loading
Personal Weather Stations






























Interactive Weather Map New forecast layout! Learn more

10-Day Weather Forecast

Advertisements
Track Severe Weather on mobile